sensor_id;sensor_type;location;lat;lon;timestamp;P1;durP1;ratioP1;P2;durP2;ratioP2
68126;SDS011;54931;52.098;21.006;2024-02-23T00:01:13;13.90;;;7.20;;
68126;SDS011;54931;52.098;21.006;2024-02-23T00:03:42;12.90;;;6.20;;
68126;SDS011;54931;52.098;21.006;2024-02-23T00:06:10;13.50;;;6.50;;
68126;SDS011;54931;52.098;21.006;2024-02-23T00:08:37;11.10;;;5.30;;
68126;SDS011;54931;52.098;21.006;2024-02-23T00:11:05;12.50;;;7.40;;
68126;SDS011;54931;52.098;21.006;2024-02-23T00:13:33;16.90;;;8.20;;
68126;SDS011;54931;52.098;21.006;2024-02-23T00:16:01;13.50;;;7.20;;
68126;SDS011;54931;52.098;21.006;2024-02-23T00:18:29;12.70;;;7.30;;
68126;SDS011;54931;52.098;21.006;2024-02-23T00:20:58;13.50;;;7.50;;
68126;SDS011;54931;52.098;21.006;2024-02-23T00:23:25;10.80;;;6.40;;
68126;SDS011;54931;52.098;21.006;2024-02-23T00:25:53;11.60;;;6.60;;
68126;SDS011;54931;52.098;21.006;2024-02-23T00:28:21;12.20;;;6.30;;
68126;SDS011;54931;52.098;21.006;2024-02-23T00:30:48;17.40;;;7.60;;
68126;SDS011;54931;52.098;21.006;2024-02-23T00:33:16;8.60;;;5.50;;
68126;SDS011;54931;52.098;21.006;2024-02-23T00:35:44;12.60;;;6.80;;
68126;SDS011;54931;52.098;21.006;2024-02-23T00:38:11;13.10;;;6.80;;
68126;SDS011;54931;52.098;21.006;2024-02-23T00:40:39;9.40;;;6.00;;
68126;SDS011;54931;52.098;21.006;2024-02-23T00:43:07;13.40;;;7.30;;
68126;SDS011;54931;52.098;21.006;2024-02-23T00:45:34;15.90;;;9.10;;
68126;SDS011;54931;52.098;21.006;2024-02-23T00:48:03;9.60;;;5.20;;
68126;SDS011;54931;52.098;21.006;2024-02-23T00:50:31;12.70;;;6.90;;
68126;SDS011;54931;52.098;21.006;2024-02-23T00:52:58;12.60;;;6.70;;
68126;SDS011;54931;52.098;21.006;2024-02-23T00:55:26;8.60;;;4.70;;
68126;SDS011;54931;52.098;21.006;2024-02-23T00:57:54;9.00;;;5.20;;
68126;SDS011;54931;52.098;21.006;2024-02-23T01:00:22;10.30;;;6.40;;
68126;SDS011;54931;52.098;21.006;2024-02-23T01:02:50;15.20;;;9.60;;
68126;SDS011;54931;52.098;21.006;2024-02-23T01:05:18;8.50;;;5.50;;
68126;SDS011;54931;52.098;21.006;2024-02-23T01:07:46;11.00;;;5.20;;
68126;SDS011;54931;52.098;21.006;2024-02-23T01:10:14;10.80;;;6.60;;
68126;SDS011;54931;52.098;21.006;2024-02-23T01:12:42;11.20;;;5.80;;
68126;SDS011;54931;52.098;21.006;2024-02-23T01:15:10;8.50;;;5.50;;
68126;SDS011;54931;52.098;21.006;2024-02-23T01:17:37;10.90;;;6.30;;
68126;SDS011;54931;52.098;21.006;2024-02-23T01:20:06;13.40;;;7.90;;
68126;SDS011;54931;52.098;21.006;2024-02-23T01:22:34;9.50;;;5.30;;
68126;SDS011;54931;52.098;21.006;2024-02-23T01:25:02;11.80;;;5.70;;
68126;SDS011;54931;52.098;21.006;2024-02-23T01:27:31;13.00;;;7.20;;
68126;SDS011;54931;52.098;21.006;2024-02-23T01:29:59;11.60;;;6.60;;
68126;SDS011;54931;52.098;21.006;2024-02-23T01:32:26;8.30;;;5.10;;
68126;SDS011;54931;52.098;21.006;2024-02-23T01:34:54;10.20;;;6.70;;
68126;SDS011;54931;52.098;21.006;2024-02-23T01:37:22;12.10;;;7.10;;
68126;SDS011;54931;52.098;21.006;2024-02-23T01:39:49;10.40;;;5.50;;
68126;SDS011;54931;52.098;21.006;2024-02-23T01:42:17;9.90;;;6.20;;
68126;SDS011;54931;52.098;21.006;2024-02-23T01:44:45;9.10;;;5.30;;
68126;SDS011;54931;52.098;21.006;2024-02-23T01:47:12;9.90;;;5.90;;
68126;SDS011;54931;52.098;21.006;2024-02-23T01:49:40;10.40;;;6.60;;
68126;SDS011;54931;52.098;21.006;2024-02-23T01:52:09;11.10;;;5.90;;
68126;SDS011;54931;52.098;21.006;2024-02-23T01:54:37;11.50;;;7.20;;
68126;SDS011;54931;52.098;21.006;2024-02-23T01:57:05;9.60;;;6.30;;
68126;SDS011;54931;52.098;21.006;2024-02-23T01:59:36;9.30;;;5.30;;
68126;SDS011;54931;52.098;21.006;2024-02-23T02:02:05;12.30;;;6.30;;
68126;SDS011;54931;52.098;21.006;2024-02-23T02:04:33;10.20;;;5.40;;
68126;SDS011;54931;52.098;21.006;2024-02-23T02:07:01;11.60;;;6.70;;
68126;SDS011;54931;52.098;21.006;2024-02-23T02:09:29;12.60;;;6.60;;
68126;SDS011;54931;52.098;21.006;2024-02-23T02:11:58;7.70;;;4.90;;
68126;SDS011;54931;52.098;21.006;2024-02-23T02:14:26;11.40;;;6.80;;
68126;SDS011;54931;52.098;21.006;2024-02-23T02:16:57;8.40;;;5.90;;
68126;SDS011;54931;52.098;21.006;2024-02-23T02:19:25;8.40;;;5.00;;
68126;SDS011;54931;52.098;21.006;2024-02-23T02:21:52;9.40;;;5.90;;
68126;SDS011;54931;52.098;21.006;2024-02-23T02:24:20;9.90;;;5.50;;
68126;SDS011;54931;52.098;21.006;2024-02-23T02:26:48;8.50;;;5.00;;
68126;SDS011;54931;52.098;21.006;2024-02-23T02:29:17;8.40;;;4.80;;
68126;SDS011;54931;52.098;21.006;2024-02-23T02:31:45;12.80;;;6.20;;
68126;SDS011;54931;52.098;21.006;2024-02-23T02:34:13;11.70;;;5.90;;
68126;SDS011;54931;52.098;21.006;2024-02-23T02:36:42;10.80;;;5.30;;
68126;SDS011;54931;52.098;21.006;2024-02-23T02:39:09;5.60;;;3.50;;
68126;SDS011;54931;52.098;21.006;2024-02-23T02:41:37;8.10;;;5.10;;
68126;SDS011;54931;52.098;21.006;2024-02-23T02:44:05;9.90;;;6.00;;
68126;SDS011;54931;52.098;21.006;2024-02-23T02:46:33;9.10;;;5.60;;
68126;SDS011;54931;52.098;21.006;2024-02-23T02:49:01;7.00;;;4.40;;
68126;SDS011;54931;52.098;21.006;2024-02-23T02:51:29;8.70;;;5.60;;
68126;SDS011;54931;52.098;21.006;2024-02-23T02:53:56;9.60;;;5.80;;
68126;SDS011;54931;52.098;21.006;2024-02-23T02:56:24;6.50;;;4.40;;
68126;SDS011;54931;52.098;21.006;2024-02-23T02:58:52;12.40;;;6.90;;
68126;SDS011;54931;52.098;21.006;2024-02-23T03:01:19;9.20;;;5.90;;
68126;SDS011;54931;52.098;21.006;2024-02-23T03:03:47;11.40;;;6.10;;
68126;SDS011;54931;52.098;21.006;2024-02-23T03:06:14;6.70;;;3.90;;
68126;SDS011;54931;52.098;21.006;2024-02-23T03:08:42;8.60;;;5.40;;
68126;SDS011;54931;52.098;21.006;2024-02-23T03:11:10;5.10;;;3.00;;
68126;SDS011;54931;52.098;21.006;2024-02-23T03:13:39;7.30;;;4.20;;
68126;SDS011;54931;52.098;21.006;2024-02-23T03:16:14;7.90;;;4.40;;
68126;SDS011;54931;52.098;21.006;2024-02-23T03:18:44;6.50;;;4.10;;
68126;SDS011;54931;52.098;21.006;2024-02-23T03:21:15;9.00;;;5.00;;
68126;SDS011;54931;52.098;21.006;2024-02-23T03:23:42;8.70;;;5.10;;
68126;SDS011;54931;52.098;21.006;2024-02-23T03:26:12;6.40;;;4.40;;
68126;SDS011;54931;52.098;21.006;2024-02-23T03:28:41;8.30;;;4.80;;
68126;SDS011;54931;52.098;21.006;2024-02-23T03:31:08;8.60;;;5.30;;
68126;SDS011;54931;52.098;21.006;2024-02-23T03:33:36;7.10;;;3.70;;
68126;SDS011;54931;52.098;21.006;2024-02-23T03:36:04;8.50;;;4.60;;
68126;SDS011;54931;52.098;21.006;2024-02-23T03:38:32;9.60;;;5.10;;
68126;SDS011;54931;52.098;21.006;2024-02-23T03:41:01;6.60;;;3.80;;
68126;SDS011;54931;52.098;21.006;2024-02-23T03:43:29;7.30;;;3.80;;
68126;SDS011;54931;52.098;21.006;2024-02-23T03:45:57;10.90;;;4.70;;
68126;SDS011;54931;52.098;21.006;2024-02-23T03:48:24;7.70;;;4.30;;
68126;SDS011;54931;52.098;21.006;2024-02-23T03:50:52;8.30;;;4.50;;
68126;SDS011;54931;52.098;21.006;2024-02-23T03:53:21;10.00;;;5.90;;
68126;SDS011;54931;52.098;21.006;2024-02-23T03:55:49;8.10;;;3.90;;
68126;SDS011;54931;52.098;21.006;2024-02-23T03:58:17;7.30;;;3.80;;
68126;SDS011;54931;52.098;21.006;2024-02-23T04:00:44;8.60;;;4.70;;
68126;SDS011;54931;52.098;21.006;2024-02-23T04:03:13;9.50;;;5.40;;
68126;SDS011;54931;52.098;21.006;2024-02-23T04:05:41;7.50;;;4.20;;
68126;SDS011;54931;52.098;21.006;2024-02-23T04:08:08;8.10;;;5.30;;
68126;SDS011;54931;52.098;21.006;2024-02-23T04:10:36;9.60;;;5.60;;
68126;SDS011;54931;52.098;21.006;2024-02-23T04:13:23;6.60;;;3.80;;
68126;SDS011;54931;52.098;21.006;2024-02-23T04:16:11;7.60;;;4.40;;
68126;SDS011;54931;52.098;21.006;2024-02-23T04:18:58;8.40;;;4.30;;
68126;SDS011;54931;52.098;21.006;2024-02-23T04:21:47;7.90;;;4.20;;
68126;SDS011;54931;52.098;21.006;2024-02-23T04:24:34;9.60;;;4.90;;
68126;SDS011;54931;52.098;21.006;2024-02-23T04:27:22;7.60;;;4.20;;
68126;SDS011;54931;52.098;21.006;2024-02-23T04:32:58;9.10;;;4.20;;
68126;SDS011;54931;52.098;21.006;2024-02-23T04:35:45;8.00;;;6.10;;
68126;SDS011;54931;52.098;21.006;2024-02-23T04:38:33;8.70;;;4.70;;
68126;SDS011;54931;52.098;21.006;2024-02-23T04:41:21;6.40;;;3.40;;
68126;SDS011;54931;52.098;21.006;2024-02-23T04:44:09;8.20;;;5.30;;
68126;SDS011;54931;52.098;21.006;2024-02-23T04:46:57;5.90;;;3.60;;
68126;SDS011;54931;52.098;21.006;2024-02-23T04:49:44;8.40;;;5.60;;
68126;SDS011;54931;52.098;21.006;2024-02-23T04:55:19;9.00;;;4.80;;
68126;SDS011;54931;52.098;21.006;2024-02-23T05:00:54;6.40;;;3.70;;
68126;SDS011;54931;52.098;21.006;2024-02-23T05:03:43;4.60;;;2.70;;
68126;SDS011;54931;52.098;21.006;2024-02-23T05:06:30;7.80;;;3.70;;
68126;SDS011;54931;52.098;21.006;2024-02-23T05:12:07;7.90;;;4.90;;
68126;SDS011;54931;52.098;21.006;2024-02-23T05:14:55;6.10;;;3.40;;
68126;SDS011;54931;52.098;21.006;2024-02-23T05:20:11;5.80;;;3.10;;
68126;SDS011;54931;52.098;21.006;2024-02-23T05:22:40;7.80;;;4.80;;
68126;SDS011;54931;52.098;21.006;2024-02-23T05:25:08;7.70;;;5.20;;
68126;SDS011;54931;52.098;21.006;2024-02-23T05:27:36;6.50;;;2.90;;
68126;SDS011;54931;52.098;21.006;2024-02-23T05:30:04;8.20;;;5.70;;
68126;SDS011;54931;52.098;21.006;2024-02-23T05:32:34;8.30;;;5.30;;
68126;SDS011;54931;52.098;21.006;2024-02-23T05:35:02;7.90;;;4.60;;
68126;SDS011;54931;52.098;21.006;2024-02-23T05:37:30;7.50;;;3.50;;
68126;SDS011;54931;52.098;21.006;2024-02-23T05:39:58;8.70;;;4.80;;
68126;SDS011;54931;52.098;21.006;2024-02-23T05:42:27;5.30;;;3.30;;
68126;SDS011;54931;52.098;21.006;2024-02-23T05:44:54;7.10;;;3.90;;
68126;SDS011;54931;52.098;21.006;2024-02-23T05:47:22;7.30;;;4.70;;
68126;SDS011;54931;52.098;21.006;2024-02-23T05:49:50;6.40;;;3.00;;
68126;SDS011;54931;52.098;21.006;2024-02-23T05:52:18;6.40;;;3.30;;
68126;SDS011;54931;52.098;21.006;2024-02-23T05:54:46;5.00;;;3.80;;
68126;SDS011;54931;52.098;21.006;2024-02-23T05:57:14;6.40;;;4.20;;
68126;SDS011;54931;52.098;21.006;2024-02-23T05:59:41;6.70;;;3.70;;
68126;SDS011;54931;52.098;21.006;2024-02-23T06:02:09;5.90;;;3.00;;
68126;SDS011;54931;52.098;21.006;2024-02-23T06:04:37;7.00;;;3.90;;
68126;SDS011;54931;52.098;21.006;2024-02-23T06:07:05;3.30;;;2.40;;
68126;SDS011;54931;52.098;21.006;2024-02-23T06:09:33;8.00;;;4.00;;
68126;SDS011;54931;52.098;21.006;2024-02-23T06:12:00;6.20;;;3.60;;
68126;SDS011;54931;52.098;21.006;2024-02-23T06:14:28;7.10;;;4.10;;
68126;SDS011;54931;52.098;21.006;2024-02-23T06:16:56;5.50;;;3.60;;
68126;SDS011;54931;52.098;21.006;2024-02-23T06:19:24;5.70;;;3.60;;
68126;SDS011;54931;52.098;21.006;2024-02-23T06:21:52;6.60;;;3.60;;
68126;SDS011;54931;52.098;21.006;2024-02-23T06:24:20;6.00;;;3.70;;
68126;SDS011;54931;52.098;21.006;2024-02-23T06:26:47;6.80;;;3.70;;
68126;SDS011;54931;52.098;21.006;2024-02-23T06:29:16;5.00;;;2.70;;
68126;SDS011;54931;52.098;21.006;2024-02-23T06:31:44;6.80;;;4.50;;
68126;SDS011;54931;52.098;21.006;2024-02-23T06:34:16;4.50;;;3.30;;
68126;SDS011;54931;52.098;21.006;2024-02-23T06:36:44;6.50;;;4.40;;
68126;SDS011;54931;52.098;21.006;2024-02-23T06:39:12;5.60;;;3.90;;
68126;SDS011;54931;52.098;21.006;2024-02-23T06:41:41;5.00;;;3.20;;
68126;SDS011;54931;52.098;21.006;2024-02-23T06:44:08;6.00;;;3.40;;
68126;SDS011;54931;52.098;21.006;2024-02-23T06:46:36;5.90;;;3.40;;
68126;SDS011;54931;52.098;21.006;2024-02-23T06:49:04;6.30;;;2.60;;
68126;SDS011;54931;52.098;21.006;2024-02-23T06:51:32;7.20;;;4.30;;
68126;SDS011;54931;52.098;21.006;2024-02-23T06:53:59;5.90;;;3.60;;
68126;SDS011;54931;52.098;21.006;2024-02-23T06:56:28;7.50;;;3.20;;
68126;SDS011;54931;52.098;21.006;2024-02-23T06:58:55;5.80;;;3.50;;
68126;SDS011;54931;52.098;21.006;2024-02-23T07:01:23;4.80;;;3.00;;
68126;SDS011;54931;52.098;21.006;2024-02-23T07:03:51;5.80;;;3.90;;
68126;SDS011;54931;52.098;21.006;2024-02-23T07:06:19;6.90;;;3.80;;
68126;SDS011;54931;52.098;21.006;2024-02-23T07:08:47;10.60;;;5.00;;
68126;SDS011;54931;52.098;21.006;2024-02-23T07:11:15;7.00;;;4.10;;
68126;SDS011;54931;52.098;21.006;2024-02-23T07:13:43;9.40;;;4.40;;
68126;SDS011;54931;52.098;21.006;2024-02-23T07:16:11;10.10;;;5.10;;
68126;SDS011;54931;52.098;21.006;2024-02-23T07:18:40;8.10;;;4.40;;
68126;SDS011;54931;52.098;21.006;2024-02-23T07:21:09;6.80;;;4.00;;
68126;SDS011;54931;52.098;21.006;2024-02-23T07:23:36;4.70;;;3.00;;
68126;SDS011;54931;52.098;21.006;2024-02-23T07:26:04;5.60;;;3.60;;
68126;SDS011;54931;52.098;21.006;2024-02-23T07:28:32;8.50;;;4.00;;
68126;SDS011;54931;52.098;21.006;2024-02-23T07:31:00;8.20;;;4.50;;
68126;SDS011;54931;52.098;21.006;2024-02-23T07:33:28;5.20;;;3.10;;
68126;SDS011;54931;52.098;21.006;2024-02-23T07:35:56;7.20;;;4.40;;
68126;SDS011;54931;52.098;21.006;2024-02-23T07:38:24;5.90;;;3.50;;
68126;SDS011;54931;52.098;21.006;2024-02-23T07:40:51;7.90;;;4.30;;
68126;SDS011;54931;52.098;21.006;2024-02-23T07:43:19;6.40;;;3.00;;
68126;SDS011;54931;52.098;21.006;2024-02-23T07:45:47;7.50;;;4.20;;
68126;SDS011;54931;52.098;21.006;2024-02-23T07:48:15;8.60;;;3.90;;
68126;SDS011;54931;52.098;21.006;2024-02-23T07:50:43;5.90;;;3.20;;
68126;SDS011;54931;52.098;21.006;2024-02-23T07:53:10;10.00;;;4.30;;
68126;SDS011;54931;52.098;21.006;2024-02-23T07:55:38;7.90;;;4.80;;
68126;SDS011;54931;52.098;21.006;2024-02-23T07:58:06;7.40;;;4.20;;
68126;SDS011;54931;52.098;21.006;2024-02-23T08:00:34;8.90;;;4.70;;
68126;SDS011;54931;52.098;21.006;2024-02-23T08:03:05;7.10;;;3.80;;
68126;SDS011;54931;52.098;21.006;2024-02-23T08:05:33;4.90;;;2.60;;
68126;SDS011;54931;52.098;21.006;2024-02-23T08:08:02;9.70;;;5.00;;
68126;SDS011;54931;52.098;21.006;2024-02-23T08:10:31;9.00;;;4.60;;
68126;SDS011;54931;52.098;21.006;2024-02-23T08:12:59;8.50;;;5.60;;
68126;SDS011;54931;52.098;21.006;2024-02-23T08:15:27;8.10;;;5.20;;
68126;SDS011;54931;52.098;21.006;2024-02-23T08:17:55;9.00;;;4.90;;
68126;SDS011;54931;52.098;21.006;2024-02-23T08:20:23;7.60;;;4.10;;
68126;SDS011;54931;52.098;21.006;2024-02-23T08:22:50;4.70;;;3.00;;
68126;SDS011;54931;52.098;21.006;2024-02-23T08:25:18;8.80;;;4.90;;
68126;SDS011;54931;52.098;21.006;2024-02-23T08:27:46;5.20;;;2.90;;
68126;SDS011;54931;52.098;21.006;2024-02-23T08:30:14;5.70;;;3.70;;
68126;SDS011;54931;52.098;21.006;2024-02-23T08:32:42;7.80;;;4.20;;
68126;SDS011;54931;52.098;21.006;2024-02-23T08:35:10;7.00;;;3.80;;
68126;SDS011;54931;52.098;21.006;2024-02-23T08:37:38;10.30;;;5.50;;
68126;SDS011;54931;52.098;21.006;2024-02-23T08:40:07;8.40;;;4.50;;
68126;SDS011;54931;52.098;21.006;2024-02-23T08:42:36;6.50;;;3.40;;
68126;SDS011;54931;52.098;21.006;2024-02-23T08:45:04;6.90;;;4.10;;
68126;SDS011;54931;52.098;21.006;2024-02-23T08:47:33;7.90;;;4.30;;
68126;SDS011;54931;52.098;21.006;2024-02-23T08:50:03;5.20;;;3.20;;
68126;SDS011;54931;52.098;21.006;2024-02-23T08:52:31;8.70;;;5.30;;
68126;SDS011;54931;52.098;21.006;2024-02-23T08:54:59;8.30;;;4.60;;
68126;SDS011;54931;52.098;21.006;2024-02-23T08:57:31;9.60;;;5.00;;
68126;SDS011;54931;52.098;21.006;2024-02-23T08:59:59;14.30;;;6.40;;
68126;SDS011;54931;52.098;21.006;2024-02-23T09:02:26;7.80;;;4.30;;
68126;SDS011;54931;52.098;21.006;2024-02-23T09:04:54;11.60;;;6.10;;
68126;SDS011;54931;52.098;21.006;2024-02-23T09:07:22;8.60;;;5.20;;
68126;SDS011;54931;52.098;21.006;2024-02-23T09:09:51;11.50;;;6.00;;
68126;SDS011;54931;52.098;21.006;2024-02-23T09:12:19;9.80;;;5.40;;
68126;SDS011;54931;52.098;21.006;2024-02-23T09:14:46;10.70;;;5.60;;
68126;SDS011;54931;52.098;21.006;2024-02-23T09:17:15;11.30;;;5.70;;
68126;SDS011;54931;52.098;21.006;2024-02-23T09:19:43;8.00;;;5.10;;
68126;SDS011;54931;52.098;21.006;2024-02-23T09:22:11;12.20;;;5.40;;
68126;SDS011;54931;52.098;21.006;2024-02-23T09:24:41;7.20;;;4.80;;
68126;SDS011;54931;52.098;21.006;2024-02-23T09:27:10;7.30;;;4.50;;
68126;SDS011;54931;52.098;21.006;2024-02-23T09:29:40;10.60;;;4.90;;
68126;SDS011;54931;52.098;21.006;2024-02-23T09:32:09;7.80;;;4.70;;
68126;SDS011;54931;52.098;21.006;2024-02-23T09:34:37;9.00;;;4.50;;
68126;SDS011;54931;52.098;21.006;2024-02-23T09:37:05;9.30;;;4.90;;
68126;SDS011;54931;52.098;21.006;2024-02-23T09:39:33;8.90;;;5.70;;
68126;SDS011;54931;52.098;21.006;2024-02-23T09:42:01;10.10;;;5.30;;
68126;SDS011;54931;52.098;21.006;2024-02-23T09:44:32;10.50;;;6.10;;
68126;SDS011;54931;52.098;21.006;2024-02-23T09:47:02;10.10;;;6.10;;
68126;SDS011;54931;52.098;21.006;2024-02-23T09:52:08;9.50;;;5.10;;
68126;SDS011;54931;52.098;21.006;2024-02-23T09:54:39;9.30;;;5.40;;
68126;SDS011;54931;52.098;21.006;2024-02-23T09:57:08;10.30;;;6.40;;
68126;SDS011;54931;52.098;21.006;2024-02-23T09:59:37;7.40;;;4.50;;
68126;SDS011;54931;52.098;21.006;2024-02-23T10:02:09;7.80;;;5.10;;
68126;SDS011;54931;52.098;21.006;2024-02-23T10:04:42;8.30;;;4.50;;
68126;SDS011;54931;52.098;21.006;2024-02-23T10:07:14;9.30;;;5.50;;
68126;SDS011;54931;52.098;21.006;2024-02-23T10:09:45;8.30;;;5.20;;
68126;SDS011;54931;52.098;21.006;2024-02-23T10:12:13;10.40;;;6.00;;
68126;SDS011;54931;52.098;21.006;2024-02-23T10:14:43;9.60;;;5.80;;
68126;SDS011;54931;52.098;21.006;2024-02-23T10:17:11;10.20;;;6.20;;
68126;SDS011;54931;52.098;21.006;2024-02-23T10:19:39;9.50;;;5.90;;
68126;SDS011;54931;52.098;21.006;2024-02-23T10:22:07;8.90;;;5.30;;
68126;SDS011;54931;52.098;21.006;2024-02-23T10:24:36;9.90;;;6.10;;
68126;SDS011;54931;52.098;21.006;2024-02-23T10:27:04;8.10;;;5.00;;
68126;SDS011;54931;52.098;21.006;2024-02-23T10:29:32;9.70;;;6.30;;
68126;SDS011;54931;52.098;21.006;2024-02-23T10:32:01;7.20;;;4.30;;
68126;SDS011;54931;52.098;21.006;2024-02-23T10:34:31;9.50;;;5.80;;
68126;SDS011;54931;52.098;21.006;2024-02-23T10:37:00;10.10;;;6.30;;
68126;SDS011;54931;52.098;21.006;2024-02-23T10:39:30;10.50;;;6.10;;
68126;SDS011;54931;52.098;21.006;2024-02-23T10:42:00;10.30;;;6.20;;
68126;SDS011;54931;52.098;21.006;2024-02-23T10:44:31;11.00;;;6.40;;
68126;SDS011;54931;52.098;21.006;2024-02-23T10:46:59;10.30;;;6.10;;
68126;SDS011;54931;52.098;21.006;2024-02-23T10:49:29;11.60;;;5.10;;
68126;SDS011;54931;52.098;21.006;2024-02-23T10:51:58;8.90;;;5.50;;
68126;SDS011;54931;52.098;21.006;2024-02-23T10:54:28;9.20;;;5.80;;
68126;SDS011;54931;52.098;21.006;2024-02-23T10:56:59;10.80;;;6.00;;
68126;SDS011;54931;52.098;21.006;2024-02-23T10:59:27;11.10;;;6.70;;
68126;SDS011;54931;52.098;21.006;2024-02-23T11:01:57;10.90;;;6.10;;
68126;SDS011;54931;52.098;21.006;2024-02-23T11:04:27;12.60;;;6.40;;
68126;SDS011;54931;52.098;21.006;2024-02-23T11:06:56;8.40;;;4.30;;
68126;SDS011;54931;52.098;21.006;2024-02-23T11:09:31;9.40;;;5.60;;
68126;SDS011;54931;52.098;21.006;2024-02-23T11:12:03;11.40;;;6.50;;
68126;SDS011;54931;52.098;21.006;2024-02-23T11:14:36;10.00;;;6.40;;
68126;SDS011;54931;52.098;21.006;2024-02-23T11:17:05;11.20;;;7.10;;
68126;SDS011;54931;52.098;21.006;2024-02-23T11:19:35;13.80;;;7.60;;
68126;SDS011;54931;52.098;21.006;2024-02-23T11:22:08;10.90;;;6.30;;
68126;SDS011;54931;52.098;21.006;2024-02-23T11:24:42;8.20;;;4.40;;
68126;SDS011;54931;52.098;21.006;2024-02-23T11:27:15;9.40;;;5.70;;
68126;SDS011;54931;52.098;21.006;2024-02-23T11:29:46;15.00;;;7.30;;
68126;SDS011;54931;52.098;21.006;2024-02-23T11:32:17;14.40;;;7.50;;
68126;SDS011;54931;52.098;21.006;2024-02-23T11:34:55;13.70;;;7.10;;
68126;SDS011;54931;52.098;21.006;2024-02-23T11:37:28;16.50;;;8.00;;
68126;SDS011;54931;52.098;21.006;2024-02-23T11:39:57;14.30;;;7.80;;
68126;SDS011;54931;52.098;21.006;2024-02-23T11:42:27;12.30;;;7.80;;
68126;SDS011;54931;52.098;21.006;2024-02-23T11:44:56;13.50;;;7.80;;
68126;SDS011;54931;52.098;21.006;2024-02-23T11:47:25;12.50;;;7.10;;
68126;SDS011;54931;52.098;21.006;2024-02-23T11:49:55;11.80;;;5.90;;
68126;SDS011;54931;52.098;21.006;2024-02-23T11:52:22;13.10;;;7.70;;
68126;SDS011;54931;52.098;21.006;2024-02-23T11:54:50;13.50;;;6.50;;
68126;SDS011;54931;52.098;21.006;2024-02-23T11:57:19;15.10;;;7.60;;
68126;SDS011;54931;52.098;21.006;2024-02-23T11:59:50;13.40;;;7.70;;
68126;SDS011;54931;52.098;21.006;2024-02-23T12:02:19;13.70;;;7.20;;
68126;SDS011;54931;52.098;21.006;2024-02-23T12:04:47;13.20;;;7.80;;
68126;SDS011;54931;52.098;21.006;2024-02-23T12:07:15;12.80;;;8.60;;
68126;SDS011;54931;52.098;21.006;2024-02-23T12:09:44;14.60;;;8.40;;
68126;SDS011;54931;52.098;21.006;2024-02-23T12:12:13;11.10;;;6.90;;
68126;SDS011;54931;52.098;21.006;2024-02-23T12:14:41;13.30;;;7.80;;
68126;SDS011;54931;52.098;21.006;2024-02-23T12:17:09;13.10;;;8.10;;
68126;SDS011;54931;52.098;21.006;2024-02-23T12:19:38;13.40;;;8.30;;
68126;SDS011;54931;52.098;21.006;2024-02-23T12:22:12;11.30;;;6.90;;
68126;SDS011;54931;52.098;21.006;2024-02-23T12:24:45;13.90;;;8.40;;
68126;SDS011;54931;52.098;21.006;2024-02-23T12:27:17;15.70;;;8.90;;
68126;SDS011;54931;52.098;21.006;2024-02-23T12:29:54;14.20;;;8.80;;
68126;SDS011;54931;52.098;21.006;2024-02-23T12:32:23;16.00;;;8.70;;
68126;SDS011;54931;52.098;21.006;2024-02-23T12:34:51;15.60;;;8.50;;
68126;SDS011;54931;52.098;21.006;2024-02-23T12:37:21;17.70;;;10.90;;
68126;SDS011;54931;52.098;21.006;2024-02-23T12:39:50;14.70;;;9.20;;
68126;SDS011;54931;52.098;21.006;2024-02-23T12:42:18;14.00;;;8.90;;
68126;SDS011;54931;52.098;21.006;2024-02-23T12:44:46;12.10;;;6.70;;
68126;SDS011;54931;52.098;21.006;2024-02-23T12:47:14;13.70;;;7.50;;
68126;SDS011;54931;52.098;21.006;2024-02-23T12:49:42;12.30;;;7.00;;
68126;SDS011;54931;52.098;21.006;2024-02-23T12:52:11;13.10;;;8.10;;
68126;SDS011;54931;52.098;21.006;2024-02-23T12:54:40;13.70;;;8.20;;
68126;SDS011;54931;52.098;21.006;2024-02-23T12:57:09;16.20;;;8.80;;
68126;SDS011;54931;52.098;21.006;2024-02-23T12:59:37;12.10;;;8.10;;
68126;SDS011;54931;52.098;21.006;2024-02-23T13:02:07;15.60;;;8.80;;
68126;SDS011;54931;52.098;21.006;2024-02-23T13:04:36;12.20;;;7.90;;
68126;SDS011;54931;52.098;21.006;2024-02-23T13:07:04;13.60;;;8.50;;
68126;SDS011;54931;52.098;21.006;2024-02-23T13:09:32;16.70;;;9.70;;
68126;SDS011;54931;52.098;21.006;2024-02-23T13:12:01;16.80;;;9.20;;
68126;SDS011;54931;52.098;21.006;2024-02-23T13:14:29;17.20;;;10.60;;
68126;SDS011;54931;52.098;21.006;2024-02-23T13:16:57;16.00;;;10.20;;
68126;SDS011;54931;52.098;21.006;2024-02-23T13:19:25;13.40;;;9.20;;
68126;SDS011;54931;52.098;21.006;2024-02-23T13:21:54;14.10;;;8.80;;
68126;SDS011;54931;52.098;21.006;2024-02-23T13:24:22;13.10;;;8.20;;
68126;SDS011;54931;52.098;21.006;2024-02-23T13:26:50;13.50;;;8.50;;
68126;SDS011;54931;52.098;21.006;2024-02-23T13:29:18;12.10;;;7.50;;
68126;SDS011;54931;52.098;21.006;2024-02-23T13:31:48;12.50;;;8.00;;
68126;SDS011;54931;52.098;21.006;2024-02-23T13:34:16;14.70;;;8.70;;
68126;SDS011;54931;52.098;21.006;2024-02-23T13:36:45;12.40;;;7.10;;
68126;SDS011;54931;52.098;21.006;2024-02-23T13:39:13;13.30;;;8.30;;
68126;SDS011;54931;52.098;21.006;2024-02-23T13:41:41;14.50;;;8.90;;
68126;SDS011;54931;52.098;21.006;2024-02-23T13:44:09;18.90;;;9.20;;
68126;SDS011;54931;52.098;21.006;2024-02-23T13:46:40;19.50;;;11.20;;
68126;SDS011;54931;52.098;21.006;2024-02-23T13:49:08;18.20;;;10.30;;
68126;SDS011;54931;52.098;21.006;2024-02-23T13:51:37;22.10;;;11.60;;
68126;SDS011;54931;52.098;21.006;2024-02-23T13:54:06;17.30;;;10.30;;
68126;SDS011;54931;52.098;21.006;2024-02-23T13:56:34;20.90;;;10.10;;
68126;SDS011;54931;52.098;21.006;2024-02-23T13:59:02;18.60;;;10.10;;
68126;SDS011;54931;52.098;21.006;2024-02-23T14:01:31;21.40;;;11.70;;
68126;SDS011;54931;52.098;21.006;2024-02-23T14:03:59;16.50;;;8.70;;
68126;SDS011;54931;52.098;21.006;2024-02-23T14:06:33;15.90;;;9.90;;
68126;SDS011;54931;52.098;21.006;2024-02-23T14:09:01;19.10;;;11.30;;
68126;SDS011;54931;52.098;21.006;2024-02-23T14:11:31;18.10;;;10.70;;
68126;SDS011;54931;52.098;21.006;2024-02-23T14:14:00;17.50;;;10.60;;
68126;SDS011;54931;52.098;21.006;2024-02-23T14:16:28;15.80;;;10.00;;
68126;SDS011;54931;52.098;21.006;2024-02-23T14:18:56;29.00;;;12.30;;
68126;SDS011;54931;52.098;21.006;2024-02-23T14:21:24;19.50;;;10.40;;
68126;SDS011;54931;52.098;21.006;2024-02-23T14:23:53;12.30;;;8.10;;
68126;SDS011;54931;52.098;21.006;2024-02-23T14:26:21;13.30;;;8.40;;
68126;SDS011;54931;52.098;21.006;2024-02-23T14:28:49;16.90;;;9.30;;
68126;SDS011;54931;52.098;21.006;2024-02-23T14:31:17;18.70;;;10.20;;
68126;SDS011;54931;52.098;21.006;2024-02-23T14:33:45;19.40;;;10.90;;
68126;SDS011;54931;52.098;21.006;2024-02-23T14:36:13;18.40;;;9.50;;
68126;SDS011;54931;52.098;21.006;2024-02-23T14:38:41;18.90;;;10.10;;
68126;SDS011;54931;52.098;21.006;2024-02-23T14:41:09;20.10;;;10.70;;
68126;SDS011;54931;52.098;21.006;2024-02-23T14:43:38;18.30;;;10.30;;
68126;SDS011;54931;52.098;21.006;2024-02-23T14:46:06;17.40;;;10.10;;
68126;SDS011;54931;52.098;21.006;2024-02-23T14:48:36;17.80;;;10.80;;
68126;SDS011;54931;52.098;21.006;2024-02-23T14:51:04;16.90;;;10.30;;
68126;SDS011;54931;52.098;21.006;2024-02-23T14:53:32;20.40;;;11.30;;
68126;SDS011;54931;52.098;21.006;2024-02-23T14:56:00;21.40;;;11.70;;
68126;SDS011;54931;52.098;21.006;2024-02-23T14:58:28;22.90;;;12.50;;